sensor_id;sensor_type;location;lat;lon;timestamp;P1;durP1;ratioP1;P2;durP2;ratioP2
58137;SDS011;43955;47.362;18.930;2023-02-15T00:01:55;42.55;;;17.25;;
58137;SDS011;43955;47.362;18.930;2023-02-15T00:04:23;36.17;;;16.05;;
58137;SDS011;43955;47.362;18.930;2023-02-15T00:06:51;34.42;;;14.98;;
58137;SDS011;43955;47.362;18.930;2023-02-15T00:09:18;36.65;;;15.55;;
58137;SDS011;43955;47.362;18.930;2023-02-15T00:11:45;42.28;;;17.05;;
58137;SDS011;43955;47.362;18.930;2023-02-15T00:14:19;34.55;;;14.52;;
58137;SDS011;43955;47.362;18.930;2023-02-15T00:16:49;37.63;;;15.73;;
58137;SDS011;43955;47.362;18.930;2023-02-15T00:19:18;35.15;;;15.55;;
58137;SDS011;43955;47.362;18.930;2023-02-15T00:21:46;34.88;;;16.25;;
58137;SDS011;43955;47.362;18.930;2023-02-15T00:24:15;32.28;;;14.10;;
58137;SDS011;43955;47.362;18.930;2023-02-15T00:26:43;29.55;;;13.05;;
58137;SDS011;43955;47.362;18.930;2023-02-15T00:29:12;35.08;;;14.45;;
58137;SDS011;43955;47.362;18.930;2023-02-15T00:31:40;36.17;;;15.15;;
58137;SDS011;43955;47.362;18.930;2023-02-15T00:34:16;42.05;;;16.25;;
58137;SDS011;43955;47.362;18.930;2023-02-15T00:36:47;40.45;;;15.07;;
58137;SDS011;43955;47.362;18.930;2023-02-15T00:39:15;32.40;;;14.15;;
58137;SDS011;43955;47.362;18.930;2023-02-15T00:41:43;34.13;;;14.00;;
58137;SDS011;43955;47.362;18.930;2023-02-15T00:44:12;33.45;;;15.27;;
58137;SDS011;43955;47.362;18.930;2023-02-15T00:46:41;33.30;;;15.00;;
58137;SDS011;43955;47.362;18.930;2023-02-15T00:49:08;35.15;;;14.55;;
58137;SDS011;43955;47.362;18.930;2023-02-15T00:51:36;36.38;;;15.50;;
58137;SDS011;43955;47.362;18.930;2023-02-15T00:54:04;34.17;;;14.90;;
58137;SDS011;43955;47.362;18.930;2023-02-15T00:56:32;33.05;;;14.30;;
58137;SDS011;43955;47.362;18.930;2023-02-15T00:58:59;28.98;;;13.80;;
58137;SDS011;43955;47.362;18.930;2023-02-15T01:01:27;35.33;;;14.48;;
58137;SDS011;43955;47.362;18.930;2023-02-15T01:03:54;34.03;;;13.90;;
58137;SDS011;43955;47.362;18.930;2023-02-15T01:06:21;33.20;;;13.85;;
58137;SDS011;43955;47.362;18.930;2023-02-15T01:08:48;38.17;;;18.90;;
58137;SDS011;43955;47.362;18.930;2023-02-15T01:11:17;35.83;;;14.50;;
58137;SDS011;43955;47.362;18.930;2023-02-15T01:16:19;34.92;;;13.88;;
58137;SDS011;43955;47.362;18.930;2023-02-15T01:18:47;28.87;;;12.82;;
58137;SDS011;43955;47.362;18.930;2023-02-15T01:21:16;42.67;;;15.10;;
58137;SDS011;43955;47.362;18.930;2023-02-15T01:23:45;35.70;;;14.75;;
58137;SDS011;43955;47.362;18.930;2023-02-15T01:26:13;33.78;;;14.52;;
58137;SDS011;43955;47.362;18.930;2023-02-15T01:28:42;30.58;;;14.93;;
58137;SDS011;43955;47.362;18.930;2023-02-15T01:31:10;34.67;;;14.25;;
58137;SDS011;43955;47.362;18.930;2023-02-15T01:33:39;34.95;;;14.80;;
58137;SDS011;43955;47.362;18.930;2023-02-15T01:36:09;34.42;;;15.45;;
58137;SDS011;43955;47.362;18.930;2023-02-15T01:38:38;41.80;;;15.98;;
58137;SDS011;43955;47.362;18.930;2023-02-15T01:41:06;45.05;;;18.50;;
58137;SDS011;43955;47.362;18.930;2023-02-15T01:43:55;39.60;;;18.85;;
58137;SDS011;43955;47.362;18.930;2023-02-15T01:46:34;50.25;;;21.67;;
58137;SDS011;43955;47.362;18.930;2023-02-15T01:49:11;42.47;;;18.75;;
58137;SDS011;43955;47.362;18.930;2023-02-15T01:51:41;50.30;;;19.67;;
58137;SDS011;43955;47.362;18.930;2023-02-15T01:54:12;45.05;;;19.83;;
58137;SDS011;43955;47.362;18.930;2023-02-15T01:56:45;42.65;;;19.17;;
58137;SDS011;43955;47.362;18.930;2023-02-15T01:59:17;47.05;;;21.60;;
58137;SDS011;43955;47.362;18.930;2023-02-15T02:01:48;44.72;;;22.17;;
58137;SDS011;43955;47.362;18.930;2023-02-15T02:04:25;42.58;;;18.85;;
58137;SDS011;43955;47.362;18.930;2023-02-15T02:06:58;55.60;;;25.15;;
58137;SDS011;43955;47.362;18.930;2023-02-15T02:09:26;69.60;;;30.17;;
58137;SDS011;43955;47.362;18.930;2023-02-15T02:11:53;75.82;;;34.13;;
58137;SDS011;43955;47.362;18.930;2023-02-15T02:14:21;49.42;;;23.27;;
58137;SDS011;43955;47.362;18.930;2023-02-15T02:22:39;49.47;;;20.92;;
58137;SDS011;43955;47.362;18.930;2023-02-15T02:37:06;41.75;;;19.25;;
58137;SDS011;43955;47.362;18.930;2023-02-15T02:39:51;37.72;;;16.10;;
58137;SDS011;43955;47.362;18.930;2023-02-15T02:45:03;35.58;;;16.90;;
58137;SDS011;43955;47.362;18.930;2023-02-15T02:47:46;42.80;;;21.12;;
58137;SDS011;43955;47.362;18.930;2023-02-15T02:50:17;36.95;;;18.87;;
58137;SDS011;43955;47.362;18.930;2023-02-15T02:52:50;45.42;;;21.17;;
58137;SDS011;43955;47.362;18.930;2023-02-15T02:58:05;31.08;;;14.15;;
58137;SDS011;43955;47.362;18.930;2023-02-15T03:00:44;37.00;;;14.65;;
58137;SDS011;43955;47.362;18.930;2023-02-15T03:06:02;38.80;;;18.92;;
58137;SDS011;43955;47.362;18.930;2023-02-15T03:08:36;34.53;;;14.85;;
58137;SDS011;43955;47.362;18.930;2023-02-15T03:11:07;33.28;;;16.20;;
58137;SDS011;43955;47.362;18.930;2023-02-15T03:13:34;32.60;;;15.50;;
58137;SDS011;43955;47.362;18.930;2023-02-15T03:16:04;31.87;;;13.95;;
58137;SDS011;43955;47.362;18.930;2023-02-15T03:18:59;35.13;;;13.82;;
58137;SDS011;43955;47.362;18.930;2023-02-15T03:24:34;29.48;;;13.30;;
58137;SDS011;43955;47.362;18.930;2023-02-15T03:27:05;36.10;;;14.83;;
58137;SDS011;43955;47.362;18.930;2023-02-15T03:29:39;34.60;;;15.18;;
58137;SDS011;43955;47.362;18.930;2023-02-15T03:32:07;36.90;;;14.13;;
58137;SDS011;43955;47.362;18.930;2023-02-15T03:34:37;35.65;;;15.55;;
58137;SDS011;43955;47.362;18.930;2023-02-15T03:39:57;41.00;;;16.87;;
58137;SDS011;43955;47.362;18.930;2023-02-15T03:42:48;38.83;;;14.32;;
58137;SDS011;43955;47.362;18.930;2023-02-15T03:45:22;34.95;;;15.10;;
58137;SDS011;43955;47.362;18.930;2023-02-15T03:47:52;39.17;;;17.62;;
58137;SDS011;43955;47.362;18.930;2023-02-15T03:50:26;38.25;;;14.98;;
58137;SDS011;43955;47.362;18.930;2023-02-15T03:53:16;44.58;;;18.55;;
58137;SDS011;43955;47.362;18.930;2023-02-15T03:55:48;40.70;;;17.15;;
58137;SDS011;43955;47.362;18.930;2023-02-15T03:58:16;42.42;;;17.40;;
58137;SDS011;43955;47.362;18.930;2023-02-15T04:01:03;39.83;;;16.45;;
58137;SDS011;43955;47.362;18.930;2023-02-15T04:03:57;39.72;;;16.12;;
58137;SDS011;43955;47.362;18.930;2023-02-15T04:06:41;40.83;;;16.42;;
58137;SDS011;43955;47.362;18.930;2023-02-15T04:09:08;46.47;;;17.45;;
58137;SDS011;43955;47.362;18.930;2023-02-15T04:11:54;37.40;;;17.42;;
58137;SDS011;43955;47.362;18.930;2023-02-15T04:14:21;35.95;;;17.23;;
58137;SDS011;43955;47.362;18.930;2023-02-15T04:17:08;45.72;;;17.40;;
58137;SDS011;43955;47.362;18.930;2023-02-15T04:19:36;38.53;;;17.02;;
58137;SDS011;43955;47.362;18.930;2023-02-15T04:22:22;35.83;;;15.57;;
58137;SDS011;43955;47.362;18.930;2023-02-15T04:25:08;41.30;;;18.30;;
58137;SDS011;43955;47.362;18.930;2023-02-15T04:27:43;45.60;;;17.52;;
58137;SDS011;43955;47.362;18.930;2023-02-15T04:30:13;50.97;;;20.70;;
58137;SDS011;43955;47.362;18.930;2023-02-15T04:32:41;63.72;;;25.55;;
58137;SDS011;43955;47.362;18.930;2023-02-15T04:35:08;75.87;;;28.98;;
58137;SDS011;43955;47.362;18.930;2023-02-15T04:37:36;167.02;;;55.80;;
58137;SDS011;43955;47.362;18.930;2023-02-15T04:40:04;189.98;;;57.22;;
58137;SDS011;43955;47.362;18.930;2023-02-15T04:42:32;42.85;;;19.35;;
58137;SDS011;43955;47.362;18.930;2023-02-15T04:45:00;46.92;;;18.02;;
58137;SDS011;43955;47.362;18.930;2023-02-15T04:47:27;43.53;;;19.55;;
58137;SDS011;43955;47.362;18.930;2023-02-15T04:49:54;52.95;;;24.20;;
58137;SDS011;43955;47.362;18.930;2023-02-15T04:52:24;64.00;;;27.75;;
58137;SDS011;43955;47.362;18.930;2023-02-15T04:54:51;59.08;;;27.17;;
58137;SDS011;43955;47.362;18.930;2023-02-15T04:57:18;57.85;;;24.77;;
58137;SDS011;43955;47.362;18.930;2023-02-15T04:59:46;57.83;;;23.70;;
58137;SDS011;43955;47.362;18.930;2023-02-15T05:02:13;44.40;;;20.30;;
58137;SDS011;43955;47.362;18.930;2023-02-15T05:04:40;47.83;;;19.20;;
58137;SDS011;43955;47.362;18.930;2023-02-15T05:07:07;59.58;;;21.65;;
58137;SDS011;43955;47.362;18.930;2023-02-15T05:09:35;92.28;;;31.60;;
58137;SDS011;43955;47.362;18.930;2023-02-15T05:12:02;81.28;;;30.75;;
58137;SDS011;43955;47.362;18.930;2023-02-15T05:14:29;46.88;;;18.65;;
58137;SDS011;43955;47.362;18.930;2023-02-15T05:16:57;44.97;;;19.42;;
58137;SDS011;43955;47.362;18.930;2023-02-15T05:19:27;37.65;;;17.35;;
58137;SDS011;43955;47.362;18.930;2023-02-15T05:21:55;45.83;;;18.20;;
58137;SDS011;43955;47.362;18.930;2023-02-15T05:24:22;53.80;;;23.40;;
58137;SDS011;43955;47.362;18.930;2023-02-15T05:27:10;48.30;;;24.08;;
58137;SDS011;43955;47.362;18.930;2023-02-15T05:29:56;47.40;;;20.62;;
58137;SDS011;43955;47.362;18.930;2023-02-15T05:32:24;57.33;;;24.45;;
58137;SDS011;43955;47.362;18.930;2023-02-15T05:34:51;57.58;;;23.77;;
58137;SDS011;43955;47.362;18.930;2023-02-15T05:37:18;55.42;;;23.87;;
58137;SDS011;43955;47.362;18.930;2023-02-15T05:39:46;43.67;;;20.50;;
58137;SDS011;43955;47.362;18.930;2023-02-15T05:42:13;34.17;;;15.73;;
58137;SDS011;43955;47.362;18.930;2023-02-15T05:44:40;57.67;;;19.62;;
58137;SDS011;43955;47.362;18.930;2023-02-15T05:47:08;42.75;;;17.80;;
58137;SDS011;43955;47.362;18.930;2023-02-15T05:49:35;38.35;;;16.48;;
58137;SDS011;43955;47.362;18.930;2023-02-15T05:52:02;40.45;;;16.30;;
58137;SDS011;43955;47.362;18.930;2023-02-15T05:54:30;53.92;;;22.02;;
58137;SDS011;43955;47.362;18.930;2023-02-15T05:56:57;45.22;;;19.15;;
58137;SDS011;43955;47.362;18.930;2023-02-15T05:59:25;38.25;;;16.98;;
58137;SDS011;43955;47.362;18.930;2023-02-15T06:01:52;43.87;;;17.60;;
58137;SDS011;43955;47.362;18.930;2023-02-15T06:04:20;60.05;;;22.58;;
58137;SDS011;43955;47.362;18.930;2023-02-15T06:06:47;54.92;;;23.40;;
58137;SDS011;43955;47.362;18.930;2023-02-15T06:09:14;91.60;;;36.15;;
58137;SDS011;43955;47.362;18.930;2023-02-15T06:11:45;74.28;;;31.80;;
58137;SDS011;43955;47.362;18.930;2023-02-15T06:14:12;66.30;;;24.95;;
58137;SDS011;43955;47.362;18.930;2023-02-15T06:16:40;42.33;;;19.17;;
58137;SDS011;43955;47.362;18.930;2023-02-15T06:19:07;44.03;;;19.67;;
58137;SDS011;43955;47.362;18.930;2023-02-15T06:21:34;40.00;;;17.65;;
58137;SDS011;43955;47.362;18.930;2023-02-15T06:24:02;52.25;;;19.62;;
58137;SDS011;43955;47.362;18.930;2023-02-15T06:26:29;43.15;;;18.40;;
58137;SDS011;43955;47.362;18.930;2023-02-15T06:28:56;62.53;;;21.08;;
58137;SDS011;43955;47.362;18.930;2023-02-15T06:31:23;40.35;;;19.87;;
58137;SDS011;43955;47.362;18.930;2023-02-15T06:33:51;48.85;;;23.67;;
58137;SDS011;43955;47.362;18.930;2023-02-15T06:36:18;44.70;;;23.33;;
58137;SDS011;43955;47.362;18.930;2023-02-15T06:38:45;55.30;;;24.20;;
58137;SDS011;43955;47.362;18.930;2023-02-15T06:41:13;72.43;;;30.40;;
58137;SDS011;43955;47.362;18.930;2023-02-15T06:43:40;87.65;;;30.92;;
58137;SDS011;43955;47.362;18.930;2023-02-15T06:46:07;101.25;;;34.03;;
58137;SDS011;43955;47.362;18.930;2023-02-15T06:48:34;86.07;;;31.08;;
58137;SDS011;43955;47.362;18.930;2023-02-15T06:51:01;52.35;;;25.85;;
58137;SDS011;43955;47.362;18.930;2023-02-15T06:53:29;53.28;;;26.87;;
58137;SDS011;43955;47.362;18.930;2023-02-15T06:56:00;58.85;;;29.00;;
58137;SDS011;43955;47.362;18.930;2023-02-15T06:58:29;59.58;;;29.50;;
58137;SDS011;43955;47.362;18.930;2023-02-15T07:00:57;54.65;;;26.55;;
58137;SDS011;43955;47.362;18.930;2023-02-15T07:03:24;60.08;;;25.15;;
58137;SDS011;43955;47.362;18.930;2023-02-15T07:05:54;71.95;;;25.40;;
58137;SDS011;43955;47.362;18.930;2023-02-15T07:08:24;50.20;;;22.83;;
58137;SDS011;43955;47.362;18.930;2023-02-15T07:10:52;67.00;;;29.83;;
58137;SDS011;43955;47.362;18.930;2023-02-15T07:13:20;63.60;;;27.80;;
58137;SDS011;43955;47.362;18.930;2023-02-15T07:15:48;51.85;;;22.37;;
58137;SDS011;43955;47.362;18.930;2023-02-15T07:18:15;52.15;;;23.87;;
58137;SDS011;43955;47.362;18.930;2023-02-15T07:20:42;49.80;;;22.65;;
58137;SDS011;43955;47.362;18.930;2023-02-15T07:23:09;43.58;;;22.87;;
58137;SDS011;43955;47.362;18.930;2023-02-15T07:25:36;44.35;;;23.90;;
58137;SDS011;43955;47.362;18.930;2023-02-15T07:28:04;53.22;;;26.85;;
58137;SDS011;43955;47.362;18.930;2023-02-15T07:30:31;62.33;;;27.62;;
58137;SDS011;43955;47.362;18.930;2023-02-15T07:32:59;75.68;;;30.58;;
58137;SDS011;43955;47.362;18.930;2023-02-15T07:35:48;73.60;;;32.40;;
58137;SDS011;43955;47.362;18.930;2023-02-15T07:38:25;77.93;;;32.75;;
58137;SDS011;43955;47.362;18.930;2023-02-15T07:41:03;71.62;;;32.00;;
58137;SDS011;43955;47.362;18.930;2023-02-15T07:43:33;61.60;;;26.55;;
58137;SDS011;43955;47.362;18.930;2023-02-15T07:46:08;65.45;;;25.00;;
58137;SDS011;43955;47.362;18.930;2023-02-15T07:48:38;53.45;;;25.37;;
58137;SDS011;43955;47.362;18.930;2023-02-15T07:51:08;55.22;;;23.17;;
58137;SDS011;43955;47.362;18.930;2023-02-15T07:53:36;45.35;;;22.35;;
58137;SDS011;43955;47.362;18.930;2023-02-15T07:56:05;52.95;;;21.70;;
58137;SDS011;43955;47.362;18.930;2023-02-15T07:58:35;50.12;;;23.23;;
58137;SDS011;43955;47.362;18.930;2023-02-15T08:01:24;48.58;;;23.70;;
58137;SDS011;43955;47.362;18.930;2023-02-15T08:03:53;52.28;;;24.25;;
58137;SDS011;43955;47.362;18.930;2023-02-15T08:06:22;57.85;;;24.52;;
58137;SDS011;43955;47.362;18.930;2023-02-15T08:08:50;53.97;;;25.35;;
58137;SDS011;43955;47.362;18.930;2023-02-15T08:11:19;42.90;;;22.40;;
58137;SDS011;43955;47.362;18.930;2023-02-15T08:16:27;84.05;;;25.92;;
58137;SDS011;43955;47.362;18.930;2023-02-15T08:18:57;60.45;;;21.80;;
58137;SDS011;43955;47.362;18.930;2023-02-15T08:21:27;43.03;;;20.00;;
58137;SDS011;43955;47.362;18.930;2023-02-15T08:23:55;39.17;;;19.67;;
58137;SDS011;43955;47.362;18.930;2023-02-15T08:26:23;52.03;;;20.90;;
58137;SDS011;43955;47.362;18.930;2023-02-15T08:28:51;47.30;;;20.70;;
58137;SDS011;43955;47.362;18.930;2023-02-15T08:31:18;45.85;;;21.65;;
58137;SDS011;43955;47.362;18.930;2023-02-15T08:33:47;46.75;;;23.02;;
58137;SDS011;43955;47.362;18.930;2023-02-15T08:36:16;46.65;;;21.25;;
58137;SDS011;43955;47.362;18.930;2023-02-15T08:38:45;47.85;;;21.25;;
58137;SDS011;43955;47.362;18.930;2023-02-15T08:41:14;44.30;;;20.70;;
58137;SDS011;43955;47.362;18.930;2023-02-15T08:43:43;38.03;;;18.80;;
58137;SDS011;43955;47.362;18.930;2023-02-15T08:46:11;39.67;;;20.50;;
58137;SDS011;43955;47.362;18.930;2023-02-15T08:48:39;50.15;;;21.62;;
58137;SDS011;43955;47.362;18.930;2023-02-15T08:51:17;47.38;;;23.08;;
58137;SDS011;43955;47.362;18.930;2023-02-15T08:53:49;47.78;;;21.60;;
58137;SDS011;43955;47.362;18.930;2023-02-15T08:56:22;45.17;;;21.17;;
58137;SDS011;43955;47.362;18.930;2023-02-15T08:58:52;43.22;;;20.27;;
58137;SDS011;43955;47.362;18.930;2023-02-15T09:01:23;45.63;;;22.05;;
58137;SDS011;43955;47.362;18.930;2023-02-15T09:03:55;66.40;;;25.73;;
58137;SDS011;43955;47.362;18.930;2023-02-15T09:06:23;58.67;;;23.15;;
58137;SDS011;43955;47.362;18.930;2023-02-15T09:08:51;43.55;;;22.60;;
58137;SDS011;43955;47.362;18.930;2023-02-15T09:11:23;52.90;;;24.15;;
58137;SDS011;43955;47.362;18.930;2023-02-15T09:13:59;53.57;;;23.73;;
58137;SDS011;43955;47.362;18.930;2023-02-15T09:16:29;47.17;;;22.60;;
58137;SDS011;43955;47.362;18.930;2023-02-15T09:18:58;45.83;;;21.95;;
58137;SDS011;43955;47.362;18.930;2023-02-15T09:21:26;44.85;;;23.58;;
58137;SDS011;43955;47.362;18.930;2023-02-15T09:23:57;45.20;;;22.58;;
58137;SDS011;43955;47.362;18.930;2023-02-15T09:26:27;65.18;;;25.48;;
58137;SDS011;43955;47.362;18.930;2023-02-15T09:28:57;63.65;;;23.67;;
58137;SDS011;43955;47.362;18.930;2023-02-15T09:31:28;49.80;;;24.83;;
58137;SDS011;43955;47.362;18.930;2023-02-15T09:33:57;46.53;;;22.62;;
58137;SDS011;43955;47.362;18.930;2023-02-15T09:36:28;48.35;;;24.40;;
58137;SDS011;43955;47.362;18.930;2023-02-15T09:44:51;44.40;;;23.17;;
58137;SDS011;43955;47.362;18.930;2023-02-15T09:49:56;51.03;;;23.85;;
58137;SDS011;43955;47.362;18.930;2023-02-15T09:55:44;42.25;;;23.48;;
58137;SDS011;43955;47.362;18.930;2023-02-15T09:58:27;45.85;;;23.65;;
58137;SDS011;43955;47.362;18.930;2023-02-15T10:01:11;45.35;;;22.83;;
58137;SDS011;43955;47.362;18.930;2023-02-15T10:06:37;48.90;;;22.90;;
58137;SDS011;43955;47.362;18.930;2023-02-15T10:09:29;39.63;;;20.17;;
58137;SDS011;43955;47.362;18.930;2023-02-15T10:17:48;42.53;;;19.10;;
58137;SDS011;43955;47.362;18.930;2023-02-15T10:28:23;35.38;;;15.57;;
58137;SDS011;43955;47.362;18.930;2023-02-15T10:39:16;34.60;;;17.40;;
58137;SDS011;43955;47.362;18.930;2023-02-15T10:42:10;33.03;;;16.85;;
58137;SDS011;43955;47.362;18.930;2023-02-15T10:44:46;38.45;;;18.85;;
58137;SDS011;43955;47.362;18.930;2023-02-15T10:56:28;29.63;;;16.15;;
58137;SDS011;43955;47.362;18.930;2023-02-15T11:00:03;35.70;;;15.45;;
58137;SDS011;43955;47.362;18.930;2023-02-15T11:04:46;31.92;;;14.48;;
58137;SDS011;43955;47.362;18.930;2023-02-15T11:07:23;30.52;;;15.32;;
58137;SDS011;43955;47.362;18.930;2023-02-15T11:12:44;33.38;;;14.05;;
58137;SDS011;43955;47.362;18.930;2023-02-15T11:15:34;35.03;;;14.93;;
58137;SDS011;43955;47.362;18.930;2023-02-15T11:18:05;28.27;;;14.30;;
58137;SDS011;43955;47.362;18.930;2023-02-15T11:20:38;24.35;;;12.43;;
58137;SDS011;43955;47.362;18.930;2023-02-15T11:23:12;32.45;;;14.20;;
58137;SDS011;43955;47.362;18.930;2023-02-15T11:25:45;25.37;;;14.00;;
58137;SDS011;43955;47.362;18.930;2023-02-15T11:28:34;29.02;;;13.98;;
58137;SDS011;43955;47.362;18.930;2023-02-15T11:31:19;29.60;;;13.80;;
58137;SDS011;43955;47.362;18.930;2023-02-15T11:33:58;25.33;;;13.20;;
58137;SDS011;43955;47.362;18.930;2023-02-15T11:36:33;26.52;;;13.27;;
58137;SDS011;43955;47.362;18.930;2023-02-15T11:39:12;27.20;;;13.00;;
58137;SDS011;43955;47.362;18.930;2023-02-15T11:41:52;33.28;;;15.32;;
58137;SDS011;43955;47.362;18.930;2023-02-15T11:44:22;42.80;;;14.82;;
58137;SDS011;43955;47.362;18.930;2023-02-15T11:46:55;36.78;;;16.02;;
58137;SDS011;43955;47.362;18.930;2023-02-15T11:51:58;42.72;;;18.05;;
58137;SDS011;43955;47.362;18.930;2023-02-15T11:54:36;38.25;;;15.60;;
58137;SDS011;43955;47.362;18.930;2023-02-15T12:02:39;82.90;;;19.75;;
58137;SDS011;43955;47.362;18.930;2023-02-15T12:05:12;30.62;;;14.57;;
58137;SDS011;43955;47.362;18.930;2023-02-15T12:12:44;28.33;;;13.93;;
58137;SDS011;43955;47.362;18.930;2023-02-15T12:15:12;30.73;;;14.32;;
58137;SDS011;43955;47.362;18.930;2023-02-15T12:20:24;37.72;;;13.10;;
58137;SDS011;43955;47.362;18.930;2023-02-15T12:23:03;31.00;;;14.10;;
58137;SDS011;43955;47.362;18.930;2023-02-15T12:28:40;36.55;;;16.15;;
58137;SDS011;43955;47.362;18.930;2023-02-15T12:33:50;25.67;;;13.02;;
58137;SDS011;43955;47.362;18.930;2023-02-15T12:36:22;36.03;;;13.38;;
58137;SDS011;43955;47.362;18.930;2023-02-15T12:44:22;37.20;;;16.12;;
58137;SDS011;43955;47.362;18.930;2023-02-15T12:47:00;48.67;;;18.37;;
58137;SDS011;43955;47.362;18.930;2023-02-15T12:49:43;31.10;;;15.00;;
58137;SDS011;43955;47.362;18.930;2023-02-15T12:54:48;31.10;;;15.38;;
58137;SDS011;43955;47.362;18.930;2023-02-15T12:59:58;31.30;;;16.40;;
58137;SDS011;43955;47.362;18.930;2023-02-15T13:08:18;32.55;;;15.10;;
58137;SDS011;43955;47.362;18.930;2023-02-15T13:13:26;32.13;;;15.52;;
58137;SDS011;43955;47.362;18.930;2023-02-15T13:16:04;45.53;;;16.48;;
58137;SDS011;43955;47.362;18.930;2023-02-15T13:18:36;31.73;;;14.35;;
58137;SDS011;43955;47.362;18.930;2023-02-15T13:21:10;43.33;;;16.45;;
58137;SDS011;43955;47.362;18.930;2023-02-15T13:23:41;27.17;;;14.13;;
58137;SDS011;43955;47.362;18.930;2023-02-15T13:26:20;30.37;;;15.13;;
58137;SDS011;43955;47.362;18.930;2023-02-15T13:28:50;29.52;;;15.43;;
58137;SDS011;43955;47.362;18.930;2023-02-15T13:31:21;26.58;;;13.98;;
58137;SDS011;43955;47.362;18.930;2023-02-15T13:33:52;27.48;;;14.73;;
58137;SDS011;43955;47.362;18.930;2023-02-15T13:39:15;37.50;;;18.33;;
58137;SDS011;43955;47.362;18.930;2023-02-15T13:47:21;32.30;;;15.68;;
58137;SDS011;43955;47.362;18.930;2023-02-15T13:50:01;41.25;;;18.67;;
58137;SDS011;43955;47.362;18.930;2023-02-15T13:52:45;32.77;;;15.77;;
58137;SDS011;43955;47.362;18.930;2023-02-15T14:14:52;28.77;;;13.55;;
58137;SDS011;43955;47.362;18.930;2023-02-15T14:20:18;28.35;;;13.25;;
58137;SDS011;43955;47.362;18.930;2023-02-15T14:22:49;31.90;;;13.93;;
58137;SDS011;43955;47.362;18.930;2023-02-15T14:25:25;28.87;;;13.30;;
58137;SDS011;43955;47.362;18.930;2023-02-15T14:30:28;30.25;;;14.63;;
58137;SDS011;43955;47.362;18.930;2023-02-15T14:33:41;32.45;;;14.30;;
58137;SDS011;43955;47.362;18.930;2023-02-15T14:36:00;29.15;;;12.75;;
58137;SDS011;43955;47.362;18.930;2023-02-15T14:41:19;28.60;;;12.75;;
58137;SDS011;43955;47.362;18.930;2023-02-15T14:44:01;54.00;;;21.52;;
58137;SDS011;43955;47.362;18.930;2023-02-15T14:49:11;50.30;;;21.30;;
58137;SDS011;43955;47.362;18.930;2023-02-15T14:54:07;29.75;;;13.98;;
58137;SDS011;43955;47.362;18.930;2023-02-15T14:56:35;25.67;;;14.52;;
58137;SDS011;43955;47.362;18.930;2023-02-15T15:01:40;27.35;;;13.15;;
58137;SDS011;43955;47.362;18.930;2023-02-15T15:04:10;25.42;;;12.65;;
58137;SDS011;43955;47.362;18.930;2023-02-15T15:06:41;24.37;;;13.38;;
58137;SDS011;43955;47.362;18.930;2023-02-15T15:09:11;33.50;;;15.90;;
58137;SDS011;43955;47.362;18.930;2023-02-15T15:11:42;40.42;;;15.52;;
58137;SDS011;43955;47.362;18.930;2023-02-15T15:14:36;29.33;;;14.48;;
58137;SDS011;43955;47.362;18.930;2023-02-15T15:17:02;38.30;;;16.60;;
58137;SDS011;43955;47.362;18.930;2023-02-15T15:22:22;49.55;;;17.67;;
58137;SDS011;43955;47.362;18.930;2023-02-15T15:24:57;40.28;;;18.27;;
58137;SDS011;43955;47.362;18.930;2023-02-15T15:27:42;50.55;;;20.02;;
58137;SDS011;43955;47.362;18.930;2023-02-15T15:35:38;65.47;;;19.77;;
58137;SDS011;43955;47.362;18.930;2023-02-15T15:41:02;34.75;;;17.30;;
58137;SDS011;43955;47.362;18.930;2023-02-15T15:46:32;67.00;;;31.05;;
58137;SDS011;43955;47.362;18.930;2023-02-15T15:49:11;146.05;;;47.13;;
58137;SDS011;43955;47.362;18.930;2023-02-15T15:51:42;182.65;;;69.93;;
58137;SDS011;43955;47.362;18.930;2023-02-15T15:54:13;93.93;;;39.65;;
58137;SDS011;43955;47.362;18.930;2023-02-15T15:56:55;52.88;;;23.48;;
58137;SDS011;43955;47.362;18.930;2023-02-15T15:59:26;38.05;;;17.75;;
58137;SDS011;43955;47.362;18.930;2023-02-15T16:01:55;42.03;;;18.98;;
58137;SDS011;43955;47.362;18.930;2023-02-15T16:04:27;41.55;;;17.75;;
58137;SDS011;43955;47.362;18.930;2023-02-15T16:09:54;39.55;;;19.67;;
58137;SDS011;43955;47.362;18.930;2023-02-15T16:12:45;75.15;;;22.17;;
58137;SDS011;43955;47.362;18.930;2023-02-15T16:15:17;51.88;;;20.00;;
58137;SDS011;43955;47.362;18.930;2023-02-15T16:17:54;58.97;;;22.75;;
58137;SDS011;43955;47.362;18.930;2023-02-15T16:20:28;84.00;;;28.30;;
58137;SDS011;43955;47.362;18.930;2023-02-15T16:25:47;55.03;;;22.45;;
58137;SDS011;43955;47.362;18.930;2023-02-15T16:28:31;54.83;;;24.17;;
58137;SDS011;43955;47.362;18.930;2023-02-15T16:31:04;61.05;;;23.05;;
58137;SDS011;43955;47.362;18.930;2023-02-15T16:33:42;57.62;;;24.87;;
58137;SDS011;43955;47.362;18.930;2023-02-15T16:36:12;48.40;;;22.52;;
58137;SDS011;43955;47.362;18.930;2023-02-15T16:39:02;46.55;;;21.08;;
58137;SDS011;43955;47.362;18.930;2023-02-15T16:41:35;59.65;;;24.00;;
58137;SDS011;43955;47.362;18.930;2023-02-15T16:44:09;108.03;;;29.05;;
58137;SDS011;43955;47.362;18.930;2023-02-15T16:46:44;53.67;;;23.77;;
58137;SDS011;43955;47.362;18.930;2023-02-15T16:49:36;54.10;;;24.15;;
58137;SDS011;43955;47.362;18.930;2023-02-15T16:52:03;53.95;;;25.00;;
58137;SDS011;43955;47.362;18.930;2023-02-15T16:54:35;72.75;;;30.62;;
58137;SDS011;43955;47.362;18.930;2023-02-15T16:57:03;88.10;;;40.38;;
58137;SDS011;43955;47.362;18.930;2023-02-15T16:59:38;164.32;;;54.30;;
58137;SDS011;43955;47.362;18.930;2023-02-15T17:02:12;99.05;;;42.62;;
58137;SDS011;43955;47.362;18.930;2023-02-15T17:05:10;60.05;;;27.08;;
58137;SDS011;43955;47.362;18.930;2023-02-15T17:10:30;58.47;;;24.67;;
58137;SDS011;43955;47.362;18.930;2023-02-15T17:13:04;53.70;;;24.60;;
58137;SDS011;43955;47.362;18.930;2023-02-15T17:15:38;46.67;;;22.05;;
58137;SDS011;43955;47.362;18.930;2023-02-15T17:20:45;43.58;;;21.55;;
58137;SDS011;43955;47.362;18.930;2023-02-15T17:26:01;55.38;;;24.77;;
58137;SDS011;43955;47.362;18.930;2023-02-15T17:28:38;59.10;;;24.73;;
58137;SDS011;43955;47.362;18.930;2023-02-15T17:31:13;65.22;;;27.05;;
58137;SDS011;43955;47.362;18.930;2023-02-15T17:33:42;67.68;;;29.67;;
58137;SDS011;43955;47.362;18.930;2023-02-15T17:36:17;63.00;;;27.02;;
58137;SDS011;43955;47.362;18.930;2023-02-15T17:41:32;62.47;;;25.45;;
58137;SDS011;43955;47.362;18.930;2023-02-15T17:44:01;68.00;;;25.67;;
58137;SDS011;43955;47.362;18.930;2023-02-15T17:46:34;55.92;;;24.37;;
58137;SDS011;43955;47.362;18.930;2023-02-15T17:49:03;69.78;;;28.40;;
58137;SDS011;43955;47.362;18.930;2023-02-15T17:51:33;57.65;;;25.90;;
58137;SDS011;43955;47.362;18.930;2023-02-15T17:54:03;67.75;;;29.15;;
58137;SDS011;43955;47.362;18.930;2023-02-15T17:56:49;64.85;;;29.55;;
58137;SDS011;43955;47.362;18.930;2023-02-15T17:59:19;64.25;;;27.45;;
58137;SDS011;43955;47.362;18.930;2023-02-15T18:01:47;60.80;;;26.50;;